Time;durP1;ratioP1;P1;durP2;ratioP2;P2;SDS_P1;SDS_P2;PMS_P1;PMS_P2;Temp;Humidity;BMP_temperature;BMP_pressure;BME280_temperature;BME280_humidity;BME280_pressure;Samples;Min_cycle;Max_cycle;Signal;HPM_P1;HPM_P2
2023/03/01 00:02:41;;;;;;;;;52.50;41.50;;;;;3.64;46.34;100000.28;6148034;28;96921;-58
2023/03/01 00:05:46;;;;;;;;;52.60;42.60;;;;;3.60;46.48;99999.75;6141161;28;96430;-58
2023/03/01 00:08:51;;;;;;;;;52.00;42.80;;;;;3.61;46.28;99997.94;6147910;28;96934;-58
2023/03/01 00:11:54;;;;;;;;;53.60;42.00;;;;;3.53;46.48;100003.16;6164573;28;97044;-59
2023/03/01 00:14:57;;;;;;;;;52.50;43.00;;;;;3.52;46.57;100006.84;6163540;28;96297;-58
2023/03/01 00:18:00;;;;;;;;;54.40;44.00;;;;;3.50;47.14;100004.31;6162792;28;96350;-59
2023/03/01 00:21:05;;;;;;;;;55.00;44.00;;;;;3.48;46.85;99996.44;6158025;28;96723;-58
2023/03/01 00:24:10;;;;;;;;;57.00;44.00;;;;;3.34;46.58;99969.44;6163823;28;96771;-58
2023/03/01 00:27:13;;;;;;;;;55.60;44.20;;;;;3.49;47.22;99995.47;6130849;28;96873;-59
2023/03/01 00:30:17;;;;;;;;;58.20;46.40;;;;;3.49;47.52;99982.13;6136755;28;96716;-59
2023/03/01 00:33:20;;;;;;;;;60.00;48.00;;;;;3.52;47.97;99983.66;6116818;28;96730;-59
2023/03/01 00:36:26;;;;;;;;;59.80;47.60;;;;;3.53;47.80;99985.31;6163796;28;96400;-58
2023/03/01 00:39:31;;;;;;;;;57.00;47.00;;;;;3.52;47.31;99982.84;6146955;28;96380;-58
2023/03/01 00:42:34;;;;;;;;;56.40;45.40;;;;;3.50;47.03;99982.97;6153697;28;96281;-58
2023/03/01 00:45:38;;;;;;;;;56.60;45.60;;;;;3.50;47.27;99985.63;6127058;28;99251;-58
2023/03/01 00:48:41;;;;;;;;;59.40;47.00;;;;;3.47;47.57;99989.44;6148660;28;96220;-59
2023/03/01 00:51:44;;;;;;;;;60.00;48.00;;;;;3.45;47.13;99971.91;6138960;28;96233;-58
2023/03/01 00:54:49;;;;;;;;;54.00;44.00;;;;;3.41;47.05;99973.22;6154090;28;96271;-58
2023/03/01 00:57:52;;;;;;;;;58.00;46.00;;;;;3.37;47.33;99971.84;6128121;28;97100;-58
2023/03/01 01:00:56;;;;;;;;;58.00;46.40;;;;;3.31;48.66;99978.59;6147501;28;96462;-58
2023/03/01 01:04:01;;;;;;;;;57.20;45.20;;;;;3.27;48.29;99971.06;6131859;28;96230;-58
2023/03/01 01:07:05;;;;;;;;;62.20;49.20;;;;;3.17;48.15;99972.94;6159287;28;97148;-58
2023/03/01 01:10:16;;;;;;;;;61.40;48.00;;;;;3.05;48.35;99962.47;6157479;28;96250;-58
2023/03/01 01:13:20;;;;;;;;;64.60;48.00;;;;;2.99;48.37;99960.38;6163519;28;97417;-58
2023/03/01 01:16:26;;;;;;;;;62.00;48.00;;;;;2.96;48.76;99957.19;6137202;28;97268;-58
2023/03/01 01:19:30;;;;;;;;;67.00;52.60;;;;;2.95;48.42;99952.81;6132053;28;96623;-58
2023/03/01 01:22:33;;;;;;;;;62.40;49.60;;;;;2.92;48.45;99958.47;6142243;28;96614;-58
2023/03/01 01:25:38;;;;;;;;;65.00;50.60;;;;;2.87;48.65;99950.06;6164858;28;96774;-58
2023/03/01 01:28:41;;;;;;;;;62.40;49.40;;;;;2.85;48.68;99960.03;6134225;28;96262;-58
2023/03/01 01:31:45;;;;;;;;;62.00;49.00;;;;;2.85;48.70;99949.38;6160146;28;96806;-58
2023/03/01 01:34:48;;;;;;;;;61.50;49.50;;;;;2.78;49.15;99937.63;6133014;28;96616;-58
2023/03/01 01:37:52;;;;;;;;;62.40;48.40;;;;;2.80;49.00;99944.47;6152099;28;96280;-58
2023/03/01 01:40:57;;;;;;;;;62.60;48.40;;;;;2.71;48.68;99925.88;6132415;28;96273;-58
2023/03/01 01:44:14;;;;;;;;;63.25;49.00;;;;;2.81;48.94;99938.19;6142644;28;96299;-59
2023/03/01 01:47:21;;;;;;;;;63.00;50.00;;;;;2.78;49.02;99938.47;6123728;28;98356;-58
2023/03/01 01:50:24;;;;;;;;;61.00;48.00;;;;;2.73;49.21;99935.41;6145914;28;96519;-59
2023/03/01 01:53:28;;;;;;;;;62.60;49.00;;;;;2.76;48.88;99927.13;6160210;28;96677;-58
2023/03/01 01:56:33;;;;;;;;;65.00;49.60;;;;;2.81;49.20;99937.34;6133450;28;96676;-58
2023/03/01 01:59:40;;;;;;;;;74.60;60.60;;;;;2.84;48.57;99934.38;6112509;28;97011;-58
2023/03/01 02:02:45;;;;;;;;;75.75;62.25;;;;;2.76;48.53;99935.13;6151149;28;96193;-58
2023/03/01 02:05:54;;;;;;;;;113.60;100.40;;;;;2.70;48.56;99932.19;6145791;28;96756;-58
2023/03/01 02:09:02;;;;;;;;;89.80;77.00;;;;;2.69;48.44;99930.53;6152849;28;96399;-59
2023/03/01 02:12:07;;;;;;;;;92.60;83.40;;;;;2.55;48.39;99923.81;6139420;28;96561;-59
2023/03/01 02:15:11;;;;;;;;;89.00;78.40;;;;;2.43;48.91;99927.66;6155352;28;96749;-59
2023/03/01 02:18:19;;;;;;;;;83.60;72.20;;;;;2.23;49.05;99902.94;6131893;28;96627;-58
2023/03/01 02:21:35;;;;;;;;;79.25;68.25;;;;;2.35;49.09;99925.72;6156460;28;96943;-59
2023/03/01 02:24:47;;;;;;;;;78.80;68.80;;;;;2.41;49.10;99926.97;6128894;28;97056;-58
2023/03/01 02:27:59;;;;;;;;;77.00;63.20;;;;;2.46;48.82;99928.22;6140337;28;97681;-58
2023/03/01 02:34:26;;;;;;;;;73.80;59.80;;;;;2.53;48.78;99939.13;6163269;28;96264;-58
2023/03/01 02:37:30;;;;;;;;;72.00;56.80;;;;;2.49;48.61;99935.88;6120583;28;99032;-58
2023/03/01 02:40:35;;;;;;;;;72.25;57.50;;;;;2.48;48.83;99946.72;6147816;28;96279;-57
2023/03/01 02:43:39;;;;;;;;;75.00;61.40;;;;;2.50;48.74;99950.03;6121258;28;98722;-57
2023/03/01 02:46:48;;;;;;;;;72.00;55.80;;;;;2.47;49.03;99948.53;6126430;28;96213;-57
2023/03/01 02:49:52;;;;;;;;;72.00;58.60;;;;;2.42;49.13;99940.13;6139627;28;97348;-57
2023/03/01 02:53:01;;;;;;;;;70.00;53.00;;;;;2.37;49.10;99945.03;6127568;28;96983;-57
2023/03/01 02:56:05;;;;;;;;;68.60;54.00;;;;;2.29;49.27;99936.94;6129055;28;96363;-57
2023/03/01 02:59:10;;;;;;;;;71.00;55.60;;;;;2.24;49.14;99949.84;6128503;28;96665;-58
2023/03/01 03:02:35;;;;;;;;;69.50;52.00;;;;;2.15;49.19;99938.22;6146903;28;96634;-57
2023/03/01 03:05:49;;;;;;;;;72.00;55.00;;;;;2.10;49.24;99937.00;6128337;28;96404;-58
2023/03/01 03:08:52;;;;;;;;;66.80;51.00;;;;;2.11;49.32;99935.97;6151631;28;99071;-57
2023/03/01 03:11:55;;;;;;;;;66.00;51.00;;;;;2.13;49.39;99928.72;6140742;28;97709;-57
2023/03/01 03:14:59;;;;;;;;;63.00;50.00;;;;;2.13;49.99;99939.34;6144486;28;97481;-57
2023/03/01 03:18:06;;;;;;;;;64.50;51.00;;;;;2.12;49.71;99929.69;6119862;28;98545;-57
2023/03/01 03:21:10;;;;;;;;;64.60;50.80;;;;;2.15;49.66;99927.56;6144442;28;96788;-57
2023/03/01 03:24:14;;;;;;;;;63.60;50.00;;;;;2.09;49.09;99914.03;6146990;28;96210;-57
2023/03/01 03:27:17;;;;;;;;;69.40;53.40;;;;;2.12;48.98;99921.72;6128337;28;96682;-57
2023/03/01 03:30:21;;;;;;;;;66.00;51.00;;;;;2.09;49.22;99920.19;6134347;28;96621;-58
2023/03/01 03:33:26;;;;;;;;;63.00;48.50;;;;;2.07;49.50;99930.13;6136429;28;96438;-57
2023/03/01 03:36:29;;;;;;;;;64.25;50.25;;;;;2.03;49.34;99931.38;6131065;28;96625;-59
2023/03/01 03:39:34;;;;;;;;;63.67;50.33;;;;;2.02;49.55;99923.53;6143489;28;96666;-57
2023/03/01 03:42:37;;;;;;;;;62.00;50.00;;;;;2.06;49.78;99928.44;6149929;28;96594;-57
2023/03/01 03:45:41;;;;;;;;;63.00;48.80;;;;;2.11;49.65;99917.34;6143814;28;96579;-57
2023/03/01 03:48:47;;;;;;;;;61.50;48.00;;;;;2.07;49.07;99914.16;6131299;28;96353;-57
2023/03/01 03:51:50;;;;;;;;;62.25;49.25;;;;;2.10;49.46;99918.38;6158687;28;96508;-58
2023/03/01 03:54:53;;;;;;;;;61.60;48.00;;;;;2.12;49.60;99916.38;6161882;28;96281;-57
2023/03/01 03:58:01;;;;;;;;;63.25;48.75;;;;;2.19;49.02;99920.16;6168995;28;96648;-58
2023/03/01 04:01:05;;;;;;;;;60.40;48.00;;;;;2.23;49.13;99924.22;6141495;28;99122;-58
2023/03/01 04:04:10;;;;;;;;;63.40;49.00;;;;;2.27;49.04;99927.41;6151782;28;96915;-57
2023/03/01 04:07:13;;;;;;;;;62.60;50.20;;;;;2.26;49.22;99934.56;6146955;28;96571;-58
2023/03/01 04:10:19;;;;;;;;;63.00;48.00;;;;;2.26;49.37;99929.25;6160411;28;96334;-58
2023/03/01 04:13:25;;;;;;;;;61.50;48.00;;;;;2.22;48.57;99927.00;6152131;28;96799;-57
2023/03/01 04:16:28;;;;;;;;;61.00;50.00;;;;;2.10;48.69;99913.84;6144032;28;96265;-58
2023/03/01 04:19:35;;;;;;;;;67.00;51.60;;;;;2.12;48.36;99927.03;6120168;28;98517;-57
2023/03/01 04:22:39;;;;;;;;;62.60;50.40;;;;;2.13;49.19;99921.56;6157653;28;96728;-57
2023/03/01 04:25:49;;;;;;;;;64.00;50.00;;;;;2.11;49.54;99920.88;6161775;28;96205;-57
2023/03/01 04:28:52;;;;;;;;;62.25;50.75;;;;;2.06;49.76;99925.78;6141749;28;96345;-57
2023/03/01 04:31:56;;;;;;;;;63.25;50.00;;;;;1.99;49.64;99926.50;6154094;28;96262;-58
2023/03/01 04:35:01;;;;;;;;;60.60;45.80;;;;;1.90;49.29;99925.53;6153637;28;98850;-58
2023/03/01 04:38:05;;;;;;;;;65.25;51.00;;;;;1.91;49.83;99929.00;6109346;28;98285;-58
2023/03/01 04:41:11;;;;;;;;;63.00;50.40;;;;;1.90;49.27;99922.03;6131807;28;96633;-57
2023/03/01 04:44:14;;;;;;;;;65.60;51.60;;;;;1.88;49.42;99930.13;6139430;28;96440;-58
2023/03/01 04:47:18;;;;;;;;;62.20;48.80;;;;;1.87;49.39;99916.97;6128252;28;96622;-57
2023/03/01 04:50:23;;;;;;;;;65.50;51.00;;;;;1.90;49.32;99917.56;6146717;28;96889;-59
2023/03/01 04:53:27;;;;;;;;;64.00;50.60;;;;;1.95;48.96;99912.66;6147397;28;96832;-58
2023/03/01 04:56:30;;;;;;;;;66.50;52.00;;;;;1.93;49.47;99922.56;6134357;28;96395;-58
2023/03/01 04:59:35;;;;;;;;;64.00;50.00;;;;;1.86;49.42;99921.44;6156127;28;96416;-58
2023/03/01 05:02:39;;;;;;;;;66.00;51.00;;;;;1.82;49.40;99909.41;6137839;28;97177;-57
2023/03/01 05:05:44;;;;;;;;;62.25;49.75;;;;;1.81;49.22;99905.06;6160261;28;96258;-57
2023/03/01 05:08:47;;;;;;;;;63.60;50.00;;;;;1.74;48.88;99904.81;6132890;28;96452;-57
2023/03/01 05:11:51;;;;;;;;;65.75;51.00;;;;;1.55;49.02;99880.91;6153277;28;96593;-57
2023/03/01 05:14:54;;;;;;;;;65.20;51.60;;;;;1.67;49.86;99903.69;6124840;28;99665;-58
2023/03/01 05:18:00;;;;;;;;;67.00;52.40;;;;;1.70;48.89;99900.78;6144952;28;96402;-57
2023/03/01 05:21:07;;;;;;;;;65.80;51.00;;;;;1.76;49.33;99901.19;6128418;28;96771;-57
2023/03/01 05:24:11;;;;;;;;;64.20;50.60;;;;;1.74;49.00;99883.56;6148634;28;96311;-57
2023/03/01 05:27:14;;;;;;;;;66.20;50.80;;;;;1.73;49.02;99892.50;6163373;28;96399;-57
2023/03/01 05:30:19;;;;;;;;;67.00;51.75;;;;;1.74;49.13;99891.53;6162829;28;97531;-58
2023/03/01 05:33:22;;;;;;;;;67.40;52.00;;;;;1.81;49.17;99889.13;6156800;28;97095;-57
2023/03/01 05:36:27;;;;;;;;;64.60;50.00;;;;;1.78;48.95;99885.91;6121237;28;98539;-61
2023/03/01 05:39:31;;;;;;;;;61.60;49.00;;;;;1.88;49.58;99895.56;6157865;28;96349;-57
2023/03/01 05:42:34;;;;;;;;;64.00;49.80;;;;;1.99;48.43;99911.38;6138018;28;98386;-58
2023/03/01 05:45:40;;;;;;;;;66.50;52.50;;;;;2.11;48.80;99914.69;6132460;28;96760;-58
2023/03/01 05:48:43;;;;;;;;;65.60;51.40;;;;;2.20;48.90;99913.03;6131854;28;96417;-58
2023/03/01 05:51:51;;;;;;;;;62.50;50.00;;;;;2.32;48.06;99918.03;6153241;28;96663;-57
2023/03/01 05:54:55;;;;;;;;;66.60;51.60;;;;;2.44;48.40;99922.22;6143083;28;96845;-59
2023/03/01 05:58:00;;;;;;;;;64.60;50.00;;;;;2.56;48.33;99921.03;6127585;28;96503;-57
2023/03/01 06:01:03;;;;;;;;;68.40;52.00;;;;;2.70;48.23;99917.06;6138955;28;96778;-57
2023/03/01 06:04:06;;;;;;;;;67.00;53.00;;;;;2.82;48.45;99917.72;6151014;28;96375;-57
2023/03/01 06:07:11;;;;;;;;;70.20;54.60;;;;;2.88;48.09;99917.13;6158642;28;96401;-58
2023/03/01 06:10:15;;;;;;;;;69.40;52.00;;;;;3.06;47.94;99915.34;6139914;28;96605;-57
2023/03/01 06:13:19;;;;;;;;;64.60;50.00;;;;;3.25;47.70;99907.22;6127729;28;98314;-57
2023/03/01 06:16:22;;;;;;;;;66.60;53.00;;;;;3.45;47.14;99911.44;6140925;28;97512;-59
2023/03/01 06:19:25;;;;;;;;;67.40;53.00;;;;;3.64;47.46;99898.94;6145029;28;96424;-59
2023/03/01 06:22:30;;;;;;;;;67.60;54.00;;;;;3.80;47.14;99907.94;6143103;28;96716;-57
2023/03/01 06:25:33;;;;;;;;;67.60;52.80;;;;;4.00;46.93;99918.44;6159427;28;96350;-57
2023/03/01 06:28:37;;;;;;;;;67.00;53.67;;;;;4.27;46.63;99916.47;6116370;28;96506;-57
2023/03/01 06:31:40;;;;;;;;;66.00;51.00;;;;;4.65;45.94;99917.03;6156346;28;96470;-57
2023/03/01 06:34:44;;;;;;;;;68.40;53.40;;;;;5.02;45.29;99920.22;6148040;28;96935;-58
2023/03/01 06:37:48;;;;;;;;;66.75;52.00;;;;;5.43;44.37;99902.44;6157585;28;97321;-57
2023/03/01 06:40:57;;;;;;;;;68.40;55.00;;;;;6.14;42.95;99917.09;6148052;28;96507;-57
2023/03/01 06:44:02;;;;;;;;;67.25;52.25;;;;;6.88;41.81;99898.88;6127802;28;96657;-57
2023/03/01 06:47:05;;;;;;;;;65.60;52.00;;;;;7.62;40.51;99897.47;6111037;28;98538;-58
2023/03/01 06:50:10;;;;;;;;;70.00;54.25;;;;;8.72;38.60;99911.28;6158222;28;97042;-57
2023/03/01 06:53:15;;;;;;;;;65.00;51.40;;;;;10.16;35.83;99899.56;6154000;28;96887;-57
2023/03/01 06:56:18;;;;;;;;;66.00;52.00;;;;;12.24;33.01;99899.03;6157679;28;96726;-59
2023/03/01 06:59:21;;;;;;;;;69.50;53.00;;;;;14.32;29.69;99899.44;6152977;28;97724;-58
2023/03/01 07:02:25;;;;;;;;;68.60;53.20;;;;;15.86;27.26;99908.22;6154901;28;96270;-59
2023/03/01 07:05:29;;;;;;;;;69.80;54.80;;;;;16.84;25.89;99904.97;6132308;28;99681;-58
2023/03/01 07:08:34;;;;;;;;;68.00;55.00;;;;;17.39;24.56;99902.63;6134929;28;96546;-58
2023/03/01 07:11:37;;;;;;;;;67.20;52.80;;;;;18.37;24.05;99899.59;6160016;28;96522;-58
2023/03/01 07:14:41;;;;;;;;;71.75;56.75;;;;;19.77;22.09;99893.66;6143159;28;96876;-58
2023/03/01 07:17:44;;;;;;;;;66.20;52.00;;;;;21.14;20.39;99886.59;6137302;28;96376;-59
2023/03/01 07:20:47;;;;;;;;;70.20;55.20;;;;;22.42;19.67;99879.25;6151984;28;97193;-58
2023/03/01 07:23:52;;;;;;;;;63.80;50.60;;;;;23.65;18.36;99869.63;6143893;28;96601;-58
2023/03/01 07:26:55;;;;;;;;;63.00;50.40;;;;;24.64;17.17;99860.06;6149941;28;97182;-58
2023/03/01 07:29:59;;;;;;;;;64.20;50.00;;;;;25.42;16.31;99843.19;6152037;28;96421;-59
2023/03/01 07:33:02;;;;;;;;;61.00;48.00;;;;;26.31;15.18;99844.13;6156171;28;97632;-59
2023/03/01 07:36:07;;;;;;;;;58.00;47.00;;;;;27.20;14.97;99828.09;6150142;28;96379;-59
2023/03/01 07:39:12;;;;;;;;;60.75;48.00;;;;;27.70;14.53;99830.94;6159719;28;98398;-60
2023/03/01 07:42:15;;;;;;;;;65.00;48.20;;;;;28.10;13.37;99829.94;6139267;28;96390;-58
2023/03/01 07:45:19;;;;;;;;;62.00;48.20;;;;;28.68;12.94;99831.84;6148605;28;96492;-59
2023/03/01 07:48:22;;;;;;;;;60.00;47.00;;;;;29.20;13.33;99830.13;6135753;28;96672;-60
2023/03/01 07:51:25;;;;;;;;;55.80;45.40;;;;;29.64;12.72;99837.44;6167731;28;96315;-59
2023/03/01 07:54:30;;;;;;;;;57.00;46.00;;;;;30.02;12.37;99846.81;6152173;28;96360;-59
2023/03/01 07:57:33;;;;;;;;;53.25;44.00;;;;;30.55;12.34;99849.25;6140172;28;96661;-56
2023/03/01 08:00:37;;;;;;;;;56.00;44.00;;;;;30.92;11.99;99850.47;6143416;28;96732;-56
2023/03/01 08:03:41;;;;;;;;;56.50;45.00;;;;;31.02;12.04;99854.06;6138787;28;97160;-57
2023/03/01 08:06:44;;;;;;;;;56.50;46.00;;;;;31.36;11.56;99853.88;6143063;28;99302;-56
2023/03/01 08:09:49;;;;;;;;;56.20;45.00;;;;;31.74;11.45;99849.09;6146092;28;96267;-56
2023/03/01 08:12:53;;;;;;;;;56.40;44.00;;;;;31.70;11.13;99844.53;6148178;28;97141;-56
2023/03/01 08:16:02;;;;;;;;;56.20;44.20;;;;;31.63;11.62;99845.06;6140669;28;96826;-56
2023/03/01 08:19:06;;;;;;;;;55.00;44.00;;;;;32.18;10.94;99841.22;6133771;28;97240;-57
2023/03/01 08:22:09;;;;;;;;;58.25;46.25;;;;;32.69;10.74;99833.50;6157346;28;96772;-57
2023/03/01 08:25:14;;;;;;;;;57.00;45.00;;;;;32.81;10.50;99827.94;6160423;28;96658;-56
2023/03/01 08:28:17;;;;;;;;;55.80;44.00;;;;;33.07;10.59;99834.03;6137857;28;96900;-57
2023/03/01 08:31:23;;;;;;;;;56.00;44.00;;;;;33.27;10.16;99826.72;6160039;28;96390;-56
2023/03/01 08:34:27;;;;;;;;;54.67;44.00;;;;;33.68;10.41;99822.84;6124617;28;98182;-56
2023/03/01 08:37:32;;;;;;;;;52.00;42.80;;;;;33.86;10.08;99813.00;6141874;28;96497;-56
2023/03/01 08:40:37;;;;;;;;;49.80;40.00;;;;;33.60;9.82;99806.97;6131783;28;97262;-56
2023/03/01 08:43:40;;;;;;;;;49.40;40.40;;;;;33.64;9.85;99807.91;6158322;28;96404;-57
2023/03/01 08:46:45;;;;;;;;;52.25;42.50;;;;;33.94;9.72;99807.25;6155024;28;96367;-56
2023/03/01 08:49:50;;;;;;;;;51.00;41.00;;;;;34.03;9.83;99807.13;6149350;28;96423;-59
2023/03/01 08:52:54;;;;;;;;;49.40;42.00;;;;;34.39;9.81;99794.16;6140153;28;96645;-56
2023/03/01 08:56:02;;;;;;;;;45.75;38.00;;;;;34.46;9.13;99795.16;6130426;28;96629;-57
2023/03/01 08:59:05;;;;;;;;;39.50;33.00;;;;;34.13;9.28;99806.59;6137441;28;96602;-57
2023/03/01 09:02:13;;;;;;;;;45.20;38.00;;;;;33.55;9.72;99810.03;6165771;28;96378;-57
2023/03/01 09:05:17;;;;;;;;;49.00;39.75;;;;;33.82;9.79;99806.47;6157572;28;96641;-63
2023/03/01 09:08:22;;;;;;;;;45.80;38.00;;;;;34.01;9.46;99815.06;6124269;28;97207;-64
2023/03/01 09:11:28;;;;;;;;;49.00;40.00;;;;;34.30;9.55;99806.34;6137278;28;96601;-66
2023/03/01 09:14:32;;;;;;;;;46.00;36.50;;;;;34.50;9.64;99806.47;6140124;28;96299;-64
2023/03/01 09:17:35;;;;;;;;;39.00;33.00;;;;;34.55;9.16;99801.38;6141774;28;97279;-64
2023/03/01 09:20:39;;;;;;;;;39.00;34.60;;;;;34.78;8.67;99804.44;6120436;28;98348;-64
2023/03/01 09:23:44;;;;;;;;;39.00;34.20;;;;;34.39;8.99;99805.34;6154964;28;96457;-64
2023/03/01 09:26:48;;;;;;;;;38.60;34.60;;;;;34.19;9.17;99801.59;6120990;28;96267;-64
2023/03/01 09:29:56;;;;;;;;;38.00;33.00;;;;;34.09;9.18;99804.88;6144497;28;96933;-65
2023/03/01 09:32:59;;;;;;;;;41.00;33.00;;;;;34.27;9.33;99811.81;6128033;28;96619;-64
2023/03/01 09:36:06;;;;;;;;;36.00;32.00;;;;;34.44;9.27;99802.28;6162668;28;96940;-64
2023/03/01 09:39:10;;;;;;;;;33.60;31.60;;;;;34.71;8.67;99798.63;6153063;28;97004;-63
2023/03/01 09:42:15;;;;;;;;;35.40;32.00;;;;;34.90;8.75;99803.50;6157575;28;96659;-64
2023/03/01 09:45:28;;;;;;;;;35.00;30.00;;;;;34.86;8.62;99791.41;6147147;28;97450;-64
2023/03/01 09:48:38;;;;;;;;;35.60;32.00;;;;;34.95;8.78;99775.22;6125160;28;96683;-63
2023/03/01 09:51:43;;;;;;;;;35.00;32.00;;;;;34.46;8.45;99797.94;6139929;28;96645;-64
2023/03/01 09:54:47;;;;;;;;;34.00;30.00;;;;;34.50;8.52;99786.88;6148528;28;97372;-64
2023/03/01 09:58:02;;;;;;;;;32.25;30.00;;;;;34.78;8.72;99791.25;6152088;28;96616;-65
2023/03/01 10:01:21;;;;;;;;;35.00;32.00;;;;;34.71;8.32;99787.44;6128158;28;98925;-65
2023/03/01 10:04:41;;;;;;;;;32.00;29.00;;;;;34.66;8.53;99796.06;6146450;28;96473;-64
2023/03/01 10:07:54;;;;;;;;;27.20;27.00;;;;;34.27;8.08;99789.41;6140709;28;96989;-64
2023/03/01 10:10:59;;;;;;;;;26.50;24.00;;;;;33.81;8.43;99790.88;6140402;28;97579;-65
2023/03/01 10:14:08;;;;;;;;;31.40;27.40;;;;;33.92;8.96;99790.00;6136551;28;99692;-64
2023/03/01 10:17:25;;;;;;;;;27.60;23.60;;;;;33.88;8.86;99797.50;6104784;28;97077;-65
2023/03/01 10:20:43;;;;;;;;;31.25;29.00;;;;;34.16;8.63;99791.88;6122487;28;98998;-64
2023/03/01 10:23:51;;;;;;;;;33.00;30.00;;;;;34.00;8.87;99782.66;6143957;28;96996;-65
2023/03/01 10:26:57;;;;;;;;;32.25;29.75;;;;;34.12;8.62;99781.75;6133606;28;98589;-65
2023/03/01 10:30:11;;;;;;;;;29.20;28.00;;;;;34.00;8.56;99773.44;6124679;28;97255;-65
2023/03/01 10:33:21;;;;;;;;;30.00;29.00;;;;;33.47;8.51;99767.88;6161369;28;96323;-64
2023/03/01 10:36:24;;;;;;;;;33.25;30.00;;;;;33.11;8.83;99762.28;6161631;28;96399;-64
2023/03/01 10:39:28;;;;;;;;;27.75;26.00;;;;;33.15;8.96;99765.19;6161578;28;96699;-64
2023/03/01 10:42:34;;;;;;;;;29.00;26.80;;;;;33.15;9.08;99768.81;6150289;28;96229;-64
2023/03/01 10:45:40;;;;;;;;;34.40;30.00;;;;;33.05;8.82;99766.47;6153574;28;97025;-65
2023/03/01 10:48:44;;;;;;;;;28.60;26.60;;;;;32.59;9.53;99762.13;6132080;28;96641;-66
2023/03/01 10:51:50;;;;;;;;;28.00;27.00;;;;;32.75;9.51;99760.31;6123990;28;98398;-65
2023/03/01 10:54:56;;;;;;;;;29.20;28.00;;;;;32.37;9.62;99754.16;6116395;28;97156;-66
2023/03/01 10:58:19;;;;;;;;;31.00;28.00;;;;;32.36;9.50;99763.69;6148594;28;97309;-66
2023/03/01 11:01:31;;;;;;;;;29.40;27.40;;;;;31.91;9.59;99756.09;6147504;28;96537;-66
2023/03/01 11:04:36;;;;;;;;;31.00;28.40;;;;;31.98;9.55;99749.94;6132051;28;96848;-66
2023/03/01 11:07:48;;;;;;;;;29.40;26.40;;;;;32.19;9.40;99757.16;6121554;28;98982;-65
2023/03/01 11:10:52;;;;;;;;;32.60;30.00;;;;;32.47;9.52;99743.38;6153044;28;96319;-65
2023/03/01 11:13:58;;;;;;;;;31.00;29.00;;;;;32.53;9.29;99738.38;6126570;28;96678;-64
2023/03/01 11:17:06;;;;;;;;;34.40;31.20;;;;;32.53;9.44;99730.84;6133898;28;97027;-65
2023/03/01 11:20:28;;;;;;;;;37.00;31.00;;;;;32.47;9.97;99737.81;6144820;28;96282;-65
2023/03/01 11:23:33;;;;;;;;;37.00;32.00;;;;;31.98;9.67;99727.63;6156886;28;96450;-65
2023/03/01 11:26:41;;;;;;;;;43.80;35.20;;;;;31.47;10.63;99740.06;6161459;28;96815;-66
2023/03/01 11:29:50;;;;;;;;;40.25;33.50;;;;;31.16;10.14;99727.31;6136282;28;98479;-66
2023/03/01 11:33:04;;;;;;;;;37.00;33.00;;;;;30.83;10.53;99727.16;6152444;28;96622;-66
2023/03/01 11:36:17;;;;;;;;;37.60;33.00;;;;;30.81;10.61;99720.28;6136110;28;97028;-65
2023/03/01 11:39:32;;;;;;;;;41.00;33.50;;;;;30.64;10.79;99718.41;6128722;28;96748;-65
2023/03/01 11:42:49;;;;;;;;;38.80;33.00;;;;;30.27;11.20;99719.16;6153045;28;96569;-65
2023/03/01 11:46:07;;;;;;;;;42.60;35.00;;;;;30.33;11.59;99712.28;6139260;28;96823;-64
2023/03/01 11:49:36;;;;;;;;;41.00;34.40;;;;;30.42;11.24;99704.72;6130964;28;96192;-64
2023/03/01 11:52:49;;;;;;;;;40.00;33.00;;;;;29.74;11.17;99711.22;6164479;28;96354;-65
2023/03/01 11:56:04;;;;;;;;;39.00;32.60;;;;;29.65;11.01;99703.72;6149099;28;96536;-65
2023/03/01 11:59:37;;;;;;;;;36.75;32.00;;;;;28.26;11.76;99706.47;6146945;28;96246;-65
2023/03/01 12:03:10;;;;;;;;;33.20;30.00;;;;;28.89;11.62;99704.44;6159969;28;96335;-65
2023/03/01 12:06:28;;;;;;;;;35.00;32.00;;;;;29.46;10.81;99689.34;6130653;28;98612;-65
2023/03/01 12:09:43;;;;;;;;;35.40;31.00;;;;;29.41;11.38;99683.16;6158584;28;97610;-65
2023/03/01 12:13:08;;;;;;;;;36.50;32.00;;;;;29.64;10.64;99681.81;6174970;28;96500;-65
2023/03/01 12:16:29;;;;;;;;;36.40;32.00;;;;;29.26;10.80;99662.19;6137506;28;99151;-64
2023/03/01 12:20:14;;;;;;;;;35.40;31.40;;;;;28.60;11.55;99671.66;6158088;28;96743;-64
2023/03/01 12:23:39;;;;;;;;;38.25;33.00;;;;;28.68;11.48;99680.03;6123148;28;98606;-64
2023/03/01 12:26:53;;;;;;;;;34.50;30.50;;;;;28.61;12.01;99674.13;6160166;28;97615;-65
2023/03/01 12:30:10;;;;;;;;;35.40;32.00;;;;;28.88;11.54;99673.09;6143716;28;97044;-65
2023/03/01 12:33:24;;;;;;;;;39.00;34.00;;;;;28.52;11.56;99676.06;6145570;28;96705;-64
2023/03/01 12:36:43;;;;;;;;;39.40;34.00;;;;;27.71;12.51;99661.59;6145769;28;96508;-63
2023/03/01 12:40:00;;;;;;;;;40.00;34.40;;;;;26.78;13.00;99656.84;6146193;28;96617;-64
2023/03/01 12:43:15;;;;;;;;;42.40;34.80;;;;;25.44;13.69;99654.06;6120053;28;98770;-63
2023/03/01 12:46:32;;;;;;;;;39.60;33.00;;;;;24.59;14.10;99651.38;6147447;28;96211;-63
2023/03/01 12:49:42;;;;;;;;;41.00;33.00;;;;;23.85;14.45;99642.84;6144792;28;96609;-64
2023/03/01 12:52:50;;;;;;;;;39.40;33.00;;;;;23.40;14.75;99649.53;6155681;28;96487;-63
2023/03/01 12:55:59;;;;;;;;;38.00;32.00;;;;;22.78;15.58;99637.28;6152624;28;97035;-64
2023/03/01 12:59:13;;;;;;;;;33.80;31.00;;;;;22.30;15.55;99645.16;6152426;28;97179;-62
2023/03/01 13:02:25;;;;;;;;;38.80;31.80;;;;;21.76;16.51;99638.66;6153656;28;96463;-63
2023/03/01 13:05:41;;;;;;;;;40.00;32.50;;;;;21.60;16.89;99637.84;6155816;28;96533;-62
2023/03/01 13:08:55;;;;;;;;;40.25;34.50;;;;;21.39;16.25;99648.03;6151808;28;98444;-63
2023/03/01 13:12:00;;;;;;;;;37.40;33.00;;;;;20.79;17.01;99647.91;6160516;28;96474;-63
2023/03/01 13:15:35;;;;;;;;;39.75;32.75;;;;;19.90;18.00;99640.63;6163321;28;96431;-62
2023/03/01 13:18:38;;;;;;;;;44.40;34.60;;;;;19.80;18.97;99630.44;6161487;28;96433;-62
2023/03/01 13:21:42;;;;;;;;;34.40;30.60;;;;;19.82;18.07;99633.72;6138347;28;98219;-62
2023/03/01 13:24:46;;;;;;;;;38.00;32.50;;;;;19.86;18.24;99639.50;6153348;28;96690;-62
2023/03/01 13:27:51;;;;;;;;;35.60;31.00;;;;;20.02;17.38;99645.91;6154337;28;98124;-62
2023/03/01 13:30:54;;;;;;;;;29.00;25.60;;;;;19.73;16.24;99635.31;6159433;28;96638;-62
2023/03/01 13:33:59;;;;;;;;;31.50;30.00;;;;;19.31;16.50;99628.91;6148161;28;96830;-62
2023/03/01 13:37:20;;;;;;;;;30.00;28.00;;;;;18.83;16.89;99629.84;6139172;28;96403;-63
2023/03/01 13:40:57;;;;;;;;;33.67;30.00;;;;;18.86;18.51;99632.06;6156101;28;96490;-62
2023/03/01 13:44:11;;;;;;;;;35.60;31.40;;;;;19.08;18.23;99638.28;6136660;28;98495;-63
2023/03/01 13:47:18;;;;;;;;;34.20;31.20;;;;;19.33;18.10;99633.06;6130337;28;96960;-62
2023/03/01 13:50:25;;;;;;;;;35.40;31.40;;;;;19.36;18.07;99618.84;6138367;28;97907;-62
2023/03/01 13:53:32;;;;;;;;;34.40;30.00;;;;;19.45;18.14;99616.50;6149238;28;96425;-62
2023/03/01 13:56:38;;;;;;;;;31.25;29.75;;;;;19.27;18.09;99611.41;6143417;28;96890;-62
2023/03/01 13:59:49;;;;;;;;;28.00;27.00;;;;;19.08;17.87;99608.22;6142322;28;98390;-63
2023/03/01 14:03:01;;;;;;;;;29.00;27.80;;;;;18.43;17.62;99608.31;6144746;28;96693;-63
2023/03/01 14:06:13;;;;;;;;;31.40;28.00;;;;;18.29;18.02;99598.88;6145202;28;96587;-63
2023/03/01 14:09:24;;;;;;;;;25.00;23.00;;;;;17.95;18.27;99596.25;6146370;28;96452;-63
2023/03/01 14:12:40;;;;;;;;;30.00;29.00;;;;;17.72;19.19;99594.59;6143799;28;98691;-62
2023/03/01 14:15:58;;;;;;;;;33.60;30.00;;;;;17.42;19.15;99609.63;6146804;28;97466;-62
2023/03/01 14:19:16;;;;;;;;;33.80;30.60;;;;;17.13;19.24;99595.25;6147700;28;96936;-61
2023/03/01 14:22:37;;;;;;;;;32.20;30.00;;;;;16.57;19.59;99591.50;6144406;28;96701;-63
2023/03/01 14:25:48;;;;;;;;;27.75;23.00;;;;;16.26;19.78;99586.53;6145699;28;96246;-61
2023/03/01 14:28:52;;;;;;;;;31.25;29.25;;;;;16.19;20.46;99589.41;6145867;28;96613;-63
2023/03/01 14:32:09;;;;;;;;;32.00;30.00;;;;;16.37;20.48;99589.22;6151555;28;96793;-62